Time;durP1;ratioP1;P1;durP2;ratioP2;P2;SDS_P1;SDS_P2;PMS_P1;PMS_P2;Temp;Humidity;BMP_temperature;BMP_pressure;BME280_temperature;BME280_humidity;BME280_pressure;Samples;Min_cycle;Max_cycle;Signal;HPM_P1;HPM_P2
2020/12/07 00:02:11;;;;;;;13.20;9.03;;;19.70;47.80;;;;;;5064171;28;20664;-70
2020/12/07 00:04:37;;;;;;;15.07;9.07;;;19.70;47.80;;;;;;5060650;28;20546;-68
2020/12/07 00:07:04;;;;;;;9.70;8.60;;;19.70;47.80;;;;;;5065905;28;20495;-69
2020/12/07 00:09:30;;;;;;;12.33;8.37;;;19.70;47.80;;;;;;5042111;28;20596;-70
2020/12/07 00:11:56;;;;;;;13.27;8.93;;;19.70;47.80;;;;;;5070662;28;21303;-69
2020/12/07 00:14:23;;;;;;;14.07;8.80;;;19.70;47.80;;;;;;5064169;28;20484;-71
2020/12/07 00:16:49;;;;;;;12.80;9.60;;;19.70;47.80;;;;;;5053172;28;20533;-68
2020/12/07 00:19:15;;;;;;;14.40;8.67;;;19.60;47.60;;;;;;5047846;28;20481;-68
2020/12/07 00:21:42;;;;;;;14.77;10.17;;;19.70;47.80;;;;;;5043800;28;20565;-69
2020/12/07 00:24:08;;;;;;;15.20;8.73;;;19.70;47.90;;;;;;5065087;28;20484;-69
2020/12/07 00:26:34;;;;;;;14.30;9.23;;;19.70;47.80;;;;;;5065187;28;20476;-70
2020/12/07 00:29:00;;;;;;;11.50;9.10;;;19.70;47.70;;;;;;5075655;28;20485;-70
2020/12/07 00:31:27;;;;;;;11.60;9.17;;;19.80;47.70;;;;;;5047726;28;20484;-70
2020/12/07 00:33:58;;;;;;;11.70;8.40;;;19.80;47.60;;;;;;5060070;28;20605;-69
2020/12/07 00:36:24;;;;;;;12.20;8.33;;;19.80;47.50;;;;;;5069579;28;21266;-68
2020/12/07 00:38:50;;;;;;;15.23;9.60;;;19.80;47.60;;;;;;5068521;28;21490;-70
2020/12/07 00:41:19;;;;;;;15.57;9.97;;;19.70;47.60;;;;;;5062870;28;20538;-70
2020/12/07 00:43:45;;;;;;;11.80;9.27;;;19.70;47.70;;;;;;5058313;28;20537;-68
2020/12/07 00:46:11;;;;;;;16.23;9.07;;;19.70;47.70;;;;;;5070839;28;20488;-69
2020/12/07 00:48:38;;;;;;;13.80;9.10;;;19.70;47.70;;;;;;5073656;28;20534;-70
2020/12/07 00:51:05;;;;;;;13.40;9.83;;;19.70;47.60;;;;;;5076243;28;20905;-70
2020/12/07 00:53:31;;;;;;;15.30;9.60;;;19.80;47.70;;;;;;5076107;28;20477;-68
2020/12/07 00:55:57;;;;;;;16.30;9.87;;;19.80;47.60;;;;;;5074629;28;20514;-69
2020/12/07 00:58:23;;;;;;;15.83;9.97;;;19.80;47.50;;;;;;5069998;28;21867;-69
2020/12/07 01:00:49;;;;;;;13.93;10.00;;;19.80;47.50;;;;;;5049541;28;20548;-69
2020/12/07 01:03:15;;;;;;;14.40;10.30;;;19.80;47.60;;;;;;5082786;28;20489;-68
2020/12/07 01:05:42;;;;;;;18.80;10.03;;;19.70;47.50;;;;;;5073585;28;20480;-70
2020/12/07 01:08:08;;;;;;;14.60;10.80;;;19.70;47.60;;;;;;5068065;28;21323;-68
2020/12/07 01:10:34;;;;;;;15.37;9.63;;;19.70;47.60;;;;;;5067614;28;20495;-70
2020/12/07 01:13:00;;;;;;;13.30;8.90;;;19.70;47.70;;;;;;5045417;28;20846;-69
2020/12/07 01:15:26;;;;;;;12.60;10.10;;;19.70;47.60;;;;;;5068198;28;20561;-68
2020/12/07 01:17:52;;;;;;;12.93;10.07;;;19.70;47.70;;;;;;5062959;28;20497;-68
2020/12/07 01:20:18;;;;;;;12.00;9.43;;;19.70;47.60;;;;;;5067550;28;20485;-70
2020/12/07 01:22:45;;;;;;;13.90;8.70;;;19.70;47.70;;;;;;5075804;28;20480;-69
2020/12/07 01:25:11;;;;;;;13.60;9.57;;;19.70;47.70;;;;;;5076681;28;20496;-70
2020/12/07 01:27:37;;;;;;;15.13;10.77;;;19.70;47.60;;;;;;5072729;28;20504;-70
2020/12/07 01:30:03;;;;;;;13.83;9.93;;;19.70;47.70;;;;;;5073044;28;20541;-69
2020/12/07 01:32:29;;;;;;;15.30;10.60;;;19.70;47.70;;;;;;5075131;28;21039;-69
2020/12/07 01:34:55;;;;;;;13.37;9.97;;;19.60;47.60;;;;;;5072579;28;21071;-69
2020/12/07 01:37:21;;;;;;;16.10;10.17;;;19.60;47.60;;;;;;5075974;28;20536;-68
2020/12/07 01:39:48;;;;;;;14.33;9.67;;;19.70;47.80;;;;;;5072422;28;20534;-70
2020/12/07 01:42:14;;;;;;;14.17;9.40;;;19.60;47.50;;;;;;5060869;28;20491;-69
2020/12/07 01:44:40;;;;;;;14.40;9.53;;;19.60;47.60;;;;;;5074264;28;21061;-69
2020/12/07 01:47:16;;;;;;;13.60;9.63;;;19.60;47.60;;;;;;5073862;28;20655;-69
2020/12/07 01:49:42;;;;;;;17.07;10.17;;;19.60;47.60;;;;;;5074844;28;20484;-68
2020/12/07 01:52:08;;;;;;;17.63;9.27;;;19.60;47.50;;;;;;5072416;28;20488;-70
2020/12/07 01:54:34;;;;;;;14.87;10.17;;;19.70;47.60;;;;;;5076454;28;20503;-70
2020/12/07 01:57:01;;;;;;;14.27;8.97;;;19.70;47.50;;;;;;5071338;28;20469;-70
2020/12/07 01:59:27;;;;;;;14.20;9.80;;;19.70;47.50;;;;;;5074020;28;20902;-69
2020/12/07 02:01:53;;;;;;;11.90;9.90;;;19.70;47.60;;;;;;5057152;28;20522;-69
2020/12/07 02:04:19;;;;;;;16.00;9.70;;;19.60;47.50;;;;;;5081062;28;20543;-71
2020/12/07 02:06:45;;;;;;;10.37;9.00;;;19.70;47.60;;;;;;5073706;28;20514;-69
2020/12/07 02:09:11;;;;;;;14.13;9.87;;;19.70;47.60;;;;;;5072623;28;20488;-69
2020/12/07 02:11:38;;;;;;;15.53;10.37;;;19.70;47.70;;;;;;5069860;28;20489;-69
2020/12/07 02:14:04;;;;;;;13.10;9.87;;;19.70;47.60;;;;;;5074933;28;20485;-69
2020/12/07 02:16:30;;;;;;;15.20;8.70;;;19.70;47.70;;;;;;5074842;28;21012;-69
2020/12/07 02:18:57;;;;;;;14.60;9.17;;;19.70;47.60;;;;;;5073562;28;20562;-70
2020/12/07 02:21:24;;;;;;;14.80;10.10;;;19.70;47.60;;;;;;5074712;28;21148;-68
2020/12/07 02:23:50;;;;;;;12.50;9.27;;;19.60;47.60;;;;;;5075730;28;20488;-70
2020/12/07 02:26:16;;;;;;;10.87;9.53;;;19.70;47.70;;;;;;5073026;28;20517;-69
2020/12/07 02:28:42;;;;;;;13.03;9.37;;;19.70;47.60;;;;;;5069568;28;20489;-70
2020/12/07 02:31:08;;;;;;;13.13;8.90;;;19.60;47.50;;;;;;5071776;28;20558;-68
2020/12/07 02:33:34;;;;;;;11.30;8.80;;;19.60;47.50;;;;;;5072745;28;20501;-69
2020/12/07 02:36:00;;;;;;;11.40;8.60;;;19.60;47.50;;;;;;5071208;28;20996;-67
2020/12/07 02:38:27;;;;;;;11.50;8.70;;;19.70;47.50;;;;;;5074897;28;20523;-68
2020/12/07 02:40:53;;;;;;;14.90;8.93;;;19.70;47.50;;;;;;5064123;28;20501;-69
2020/12/07 02:43:19;;;;;;;11.90;8.33;;;19.80;47.50;;;;;;5069844;28;20490;-69
2020/12/07 02:45:45;;;;;;;11.60;7.90;;;19.70;47.40;;;;;;5072251;28;21064;-70
2020/12/07 02:48:11;;;;;;;13.97;7.77;;;19.70;47.40;;;;;;5072653;28;20635;-70
2020/12/07 02:50:37;;;;;;;12.40;8.50;;;19.70;47.40;;;;;;5073423;28;20494;-69
2020/12/07 02:53:03;;;;;;;12.27;8.03;;;19.70;47.90;;;;;;5072404;28;20486;-69
2020/12/07 02:55:30;;;;;;;13.60;8.30;;;19.70;47.50;;;;;;5072920;28;20527;-69
2020/12/07 02:57:56;;;;;;;12.57;8.60;;;19.70;47.50;;;;;;5067203;28;20492;-69
2020/12/07 03:00:22;;;;;;;14.07;8.70;;;19.80;47.50;;;;;;5080669;28;21015;-69
2020/12/07 03:02:48;;;;;;;9.40;7.60;;;19.80;47.40;;;;;;5071713;28;20480;-70
2020/12/07 03:05:14;;;;;;;10.43;8.30;;;19.80;47.40;;;;;;5040691;28;20486;-69
2020/12/07 03:07:40;;;;;;;13.07;7.83;;;19.80;47.30;;;;;;5028559;28;20477;-69
2020/12/07 03:10:06;;;;;;;12.53;8.83;;;19.80;47.30;;;;;;5038260;28;20486;-68
2020/12/07 03:12:33;;;;;;;8.70;7.80;;;19.80;47.30;;;;;;5051800;28;20498;-69
2020/12/07 03:14:59;;;;;;;10.97;8.10;;;19.80;47.40;;;;;;5047386;28;20539;-72
2020/12/07 03:17:26;;;;;;;11.10;8.90;;;19.70;47.40;;;;;;5052433;28;20487;-71
2020/12/07 03:19:52;;;;;;;9.10;8.03;;;19.70;47.50;;;;;;5050429;28;20485;-69
2020/12/07 03:22:18;;;;;;;9.90;7.30;;;19.70;47.50;;;;;;5051932;28;20493;-69
2020/12/07 03:24:44;;;;;;;10.27;9.10;;;19.70;47.50;;;;;;5072825;28;20538;-68
2020/12/07 03:27:10;;;;;;;11.00;7.63;;;19.70;48.30;;;;;;5069251;28;20542;-69
2020/12/07 03:29:37;;;;;;;8.77;7.87;;;19.70;47.50;;;;;;5071006;28;20530;-69
2020/12/07 03:32:03;;;;;;;8.33;7.40;;;19.70;47.60;;;;;;5068085;28;20489;-70
2020/12/07 03:34:29;;;;;;;10.77;7.37;;;19.70;47.50;;;;;;5070179;28;20531;-68
2020/12/07 03:36:55;;;;;;;12.40;7.50;;;19.70;47.50;;;;;;5072205;28;20481;-69
2020/12/07 03:39:21;;;;;;;12.00;7.67;;;19.70;47.40;;;;;;5077247;28;20476;-70
2020/12/07 03:41:47;;;;;;;9.87;7.90;;;19.70;47.40;;;;;;5085907;28;20553;-70
2020/12/07 03:44:13;;;;;;;8.73;6.87;;;19.70;47.40;;;;;;5096149;28;20484;-70
2020/12/07 03:46:40;;;;;;;8.43;6.97;;;19.70;47.50;;;;;;5082411;28;20514;-68
2020/12/07 03:49:06;;;;;;;11.00;7.87;;;19.70;47.50;;;;;;5098978;28;20493;-70
2020/12/07 03:51:32;;;;;;;7.57;6.30;;;19.70;47.60;;;;;;5078047;28;20551;-68
2020/12/07 03:53:58;;;;;;;7.43;6.70;;;19.60;47.50;;;;;;5071980;28;20495;-69
2020/12/07 03:56:24;;;;;;;7.20;6.33;;;19.60;47.50;;;;;;5072864;28;20478;-72
2020/12/07 03:58:50;;;;;;;9.03;7.50;;;19.70;47.60;;;;;;5075315;28;21105;-69
2020/12/07 04:01:16;;;;;;;8.10;6.70;;;19.70;47.60;;;;;;5072208;28;20482;-67
2020/12/07 04:03:45;;;;;;;8.97;7.50;;;19.60;47.60;;;;;;5072725;28;20529;-68
2020/12/07 04:06:14;;;;;;;12.20;7.63;;;19.60;47.60;;;;;;5070522;28;20489;-69
2020/12/07 04:08:40;;;;;;;8.60;7.00;;;19.60;47.50;;;;;;5070331;28;20485;-69
2020/12/07 04:11:06;;;;;;;9.83;7.53;;;19.60;47.50;;;;;;5069849;28;20494;-70
2020/12/07 04:13:33;;;;;;;8.47;6.70;;;19.60;47.50;;;;;;5067704;28;20501;-69
2020/12/07 04:15:59;;;;;;;8.80;7.10;;;19.60;47.50;;;;;;5070602;28;20486;-66
2020/12/07 04:18:25;;;;;;;8.27;6.70;;;19.70;47.60;;;;;;5074748;28;20561;-69
2020/12/07 04:20:52;;;;;;;10.23;7.23;;;19.70;47.50;;;;;;5074378;28;20484;-68
2020/12/07 04:23:18;;;;;;;7.77;6.07;;;19.70;47.30;;;;;;5068836;28;20500;-69
2020/12/07 04:25:44;;;;;;;8.10;6.83;;;19.80;47.20;;;;;;5074735;28;20481;-68
2020/12/07 04:28:10;;;;;;;7.30;6.60;;;19.80;47.00;;;;;;5073373;28;20546;-69
2020/12/07 04:30:38;;;;;;;8.00;7.20;;;19.90;46.90;;;;;;5070916;28;20897;-68
2020/12/07 04:33:04;;;;;;;7.53;6.37;;;19.90;46.90;;;;;;5071843;28;20493;-70
2020/12/07 04:35:30;;;;;;;11.87;7.10;;;20.00;46.90;;;;;;5073728;28;20527;-66
2020/12/07 04:37:57;;;;;;;7.10;6.43;;;20.00;47.00;;;;;;5065243;28;20481;-69
2020/12/07 04:40:23;;;;;;;7.33;6.60;;;20.00;47.00;;;;;;5077797;28;20489;-69
2020/12/07 04:42:49;;;;;;;8.57;7.50;;;20.00;46.90;;;;;;5071588;28;20493;-70
2020/12/07 04:45:15;;;;;;;8.87;6.50;;;19.90;46.90;;;;;;5064310;28;20489;-69
2020/12/07 04:47:41;;;;;;;8.87;6.37;;;19.90;47.00;;;;;;5072658;28;20484;-69
2020/12/07 04:50:08;;;;;;;8.40;6.67;;;19.90;47.10;;;;;;5071912;28;20486;-69
2020/12/07 04:52:34;;;;;;;10.27;6.93;;;19.90;47.10;;;;;;5072522;28;20501;-68
2020/12/07 04:55:03;;;;;;;7.67;6.93;;;19.90;47.80;;;;;;5072000;28;20481;-68
2020/12/07 04:57:29;;;;;;;7.50;6.73;;;19.90;47.20;;;;;;5074284;28;20485;-69
2020/12/07 04:59:56;;;;;;;7.27;6.57;;;19.90;47.20;;;;;;5072542;28;20534;-71
2020/12/07 05:02:22;;;;;;;7.13;6.43;;;19.80;47.10;;;;;;5063273;28;20538;-67
2020/12/07 05:04:48;;;;;;;6.97;6.27;;;19.80;47.10;;;;;;5072673;28;20484;-69
2020/12/07 05:07:14;;;;;;;7.80;7.00;;;19.90;47.30;;;;;;5066104;28;20485;-70
2020/12/07 05:09:40;;;;;;;8.20;6.63;;;19.90;47.20;;;;;;5070617;28;20499;-69
2020/12/07 05:12:12;;;;;;;7.80;6.30;;;19.90;47.20;;;;;;5068532;28;20534;-69
2020/12/07 05:14:38;;;;;;;8.47;6.97;;;19.90;47.30;;;;;;5072983;28;20568;-68
2020/12/07 05:17:04;;;;;;;6.93;6.23;;;19.90;47.20;;;;;;5071012;28;20491;-70
2020/12/07 05:19:30;;;;;;;8.53;6.40;;;19.90;47.20;;;;;;5072518;28;20484;-69
2020/12/07 05:21:56;;;;;;;8.60;6.37;;;19.90;47.20;;;;;;5066509;28;20557;-69
2020/12/07 05:24:24;;;;;;;12.33;6.30;;;20.00;47.20;;;;;;5068651;28;20546;-69
2020/12/07 05:26:50;;;;;;;8.37;6.37;;;20.00;47.00;;;;;;5072447;28;20900;-70
2020/12/07 05:29:30;;;;;;;6.77;6.13;;;20.10;47.00;;;;;;5069487;28;20485;-69
2020/12/07 05:31:56;;;;;;;7.50;6.77;;;20.10;46.90;;;;;;5069381;28;20566;-69
2020/12/07 05:34:23;;;;;;;8.23;6.27;;;20.10;46.70;;;;;;5073448;28;20597;-68
2020/12/07 05:36:53;;;;;;;6.83;6.20;;;20.10;46.80;;;;;;5072748;28;20565;-69
2020/12/07 05:39:20;;;;;;;6.83;6.07;;;20.20;46.80;;;;;;5066262;28;21200;-71
2020/12/07 05:41:46;;;;;;;5.87;5.27;;;20.10;46.70;;;;;;5074303;28;20519;-69
2020/12/07 05:44:12;;;;;;;6.47;5.90;;;20.20;46.80;;;;;;5076023;28;21620;-69
2020/12/07 05:46:39;;;;;;;6.80;6.20;;;20.20;46.80;;;;;;5057084;28;21126;-67
2020/12/07 05:49:05;;;;;;;8.03;5.93;;;20.10;46.70;;;;;;5076291;28;20645;-69
2020/12/07 05:51:31;;;;;;;9.23;5.77;;;20.10;46.70;;;;;;5073948;28;20482;-69
2020/12/07 05:53:57;;;;;;;7.30;6.40;;;20.00;46.70;;;;;;5072652;28;20893;-69
2020/12/07 05:56:23;;;;;;;9.43;6.73;;;20.00;47.00;;;;;;5071036;28;20485;-69
2020/12/07 05:58:55;;;;;;;6.53;5.93;;;19.90;46.90;;;;;;5072666;28;20488;-69
2020/12/07 06:01:24;;;;;;;6.17;5.60;;;19.90;47.00;;;;;;5058915;28;20526;-69
2020/12/07 06:03:52;;;;;;;6.90;6.30;;;19.90;47.20;;;;;;5078376;28;20541;-69
2020/12/07 06:06:18;;;;;;;7.03;6.00;;;19.80;47.10;;;;;;5075406;28;20470;-71
2020/12/07 06:08:44;;;;;;;7.77;6.57;;;19.80;47.10;;;;;;5069748;28;20530;-71
2020/12/07 06:11:11;;;;;;;5.47;4.97;;;19.80;47.00;;;;;;5077723;28;20477;-70
2020/12/07 06:13:37;;;;;;;6.07;5.43;;;19.90;47.00;;;;;;5079961;28;20484;-70
2020/12/07 06:16:03;;;;;;;7.47;6.30;;;19.90;46.90;;;;;;5073241;28;20531;-70
2020/12/07 06:18:30;;;;;;;17.80;5.37;;;20.00;48.60;;;;;;5077485;28;20488;-69
2020/12/07 06:21:02;;;;;;;14.53;7.07;;;20.00;47.60;;;;;;5073217;28;20534;-70
2020/12/07 06:23:32;;;;;;;9.40;6.33;;;20.00;47.80;;;;;;5075865;28;20507;-72
2020/12/07 06:25:59;;;;;;;12.83;7.17;;;20.00;48.60;;;;;;5074145;28;20488;-70
2020/12/07 06:28:26;;;;;;;11.70;6.07;;;20.00;49.20;;;;;;5074317;28;20572;-68
2020/12/07 06:30:52;;;;;;;13.20;5.43;;;19.90;48.50;;;;;;5063553;28;20484;-69
2020/12/07 06:33:18;;;;;;;13.43;7.13;;;19.90;48.20;;;;;;5073831;28;20481;-67
2020/12/07 06:35:45;;;;;;;7.50;5.97;;;19.80;47.90;;;;;;5069034;28;20488;-70
2020/12/07 06:38:12;;;;;;;6.27;5.67;;;19.70;47.70;;;;;;5072747;28;20480;-70
2020/12/07 06:40:40;;;;;;;8.67;6.83;;;19.70;47.60;;;;;;5063689;28;20480;-68
2020/12/07 06:43:16;;;;;;;10.73;6.63;;;19.70;47.70;;;;;;5088242;28;21037;-69
2020/12/07 06:45:42;;;;;;;8.33;6.67;;;19.70;47.50;;;;;;5078642;28;20579;-69
2020/12/07 06:48:09;;;;;;;10.40;7.57;;;19.70;47.40;;;;;;5075451;28;20621;-68
2020/12/07 06:50:37;;;;;;;6.93;6.30;;;19.60;47.40;;;;;;5075230;28;21041;-69
2020/12/07 06:53:44;;;;;;;9.77;7.50;;;19.70;47.30;;;;;;5071805;28;20546;-68
2020/12/07 06:56:10;;;;;;;7.97;7.00;;;19.70;47.30;;;;;;5071277;28;20468;-69
2020/12/07 06:58:37;;;;;;;9.30;6.00;;;19.70;47.70;;;;;;5070617;28;20541;-68
2020/12/07 07:01:07;;;;;;;7.40;6.67;;;19.60;47.20;;;;;;5057421;28;20493;-69
2020/12/07 07:03:33;;;;;;;8.73;6.60;;;19.70;47.30;;;;;;5067568;28;21111;-70
2020/12/07 07:06:07;;;;;;;8.80;7.40;;;19.70;47.40;;;;;;5080704;27;21011;-70
2020/12/07 07:08:36;;;;;;;7.67;5.93;;;19.70;47.40;;;;;;5064020;28;20546;-69
2020/12/07 07:11:03;;;;;;;6.87;5.53;;;19.70;47.30;;;;;;5068301;28;20488;-71
2020/12/07 07:13:29;;;;;;;7.63;6.80;;;19.80;47.40;;;;;;5060663;28;20485;-70
2020/12/07 07:16:00;;;;;;;8.20;6.30;;;19.90;47.40;;;;;;5087442;27;20999;-70
2020/12/07 07:18:26;;;;;;;6.30;5.10;;;19.90;47.30;;;;;;5080283;28;20501;-71
2020/12/07 07:20:58;;;;;;;8.23;6.07;;;19.90;47.30;;;;;;5087716;28;20493;-70
2020/12/07 07:23:25;;;;;;;8.33;6.80;;;19.90;47.20;;;;;;5091329;28;20473;-69
2020/12/07 07:25:55;;;;;;;8.90;5.17;;;19.90;47.20;;;;;;5069715;28;20499;-69
2020/12/07 07:28:21;;;;;;;11.07;6.47;;;19.90;47.30;;;;;;5068413;28;20557;-68
2020/12/07 07:30:47;;;;;;;8.40;6.30;;;19.80;47.40;;;;;;5069905;28;20457;-71
2020/12/07 07:33:13;;;;;;;8.23;5.23;;;19.90;47.50;;;;;;5065659;28;20241;-69
2020/12/07 07:35:39;;;;;;;6.40;5.40;;;19.80;47.50;;;;;;5066910;28;20485;-70
2020/12/07 07:38:05;;;;;;;7.00;5.80;;;19.80;47.60;;;;;;5071959;28;21028;-68
2020/12/07 07:40:31;;;;;;;7.83;5.60;;;19.80;47.70;;;;;;5068565;28;20492;-69
2020/12/07 07:43:00;;;;;;;8.40;5.43;;;19.80;47.70;;;;;;5067824;28;20576;-68
2020/12/07 07:45:31;;;;;;;6.60;6.00;;;19.80;47.80;;;;;;5078063;28;20501;-69
2020/12/07 07:48:01;;;;;;;8.63;5.40;;;19.80;47.80;;;;;;5074872;28;21047;-68
2020/12/07 08:02:29;;;;;;;7.13;5.33;;;19.70;47.90;;;;;;5068211;28;20606;-70
2020/12/07 08:16:19;;;;;;;5.67;4.97;;;19.90;47.70;;;;;;5047099;28;20509;-69
2020/12/07 08:18:45;;;;;;;6.57;5.27;;;19.90;47.70;;;;;;5046587;28;20485;-70
2020/12/07 08:21:11;;;;;;;6.17;5.57;;;19.90;47.90;;;;;;5051125;28;20477;-68
2020/12/07 08:23:38;;;;;;;6.07;5.33;;;19.80;47.80;;;;;;5043317;28;20482;-67
2020/12/07 08:26:04;;;;;;;6.73;5.07;;;19.90;47.80;;;;;;5050056;28;20494;-69
2020/12/07 08:28:32;;;;;;;7.10;4.40;;;19.90;47.80;;;;;;5043078;28;20482;-69
2020/12/07 08:31:08;;;;;;;6.67;5.50;;;19.90;47.70;;;;;;5044176;28;21016;-68
2020/12/07 08:33:36;;;;;;;4.37;3.97;;;19.90;47.60;;;;;;5042429;28;20466;-69
2020/12/07 08:36:03;;;;;;;5.30;4.80;;;20.00;47.70;;;;;;5051123;28;20502;-68
2020/12/07 08:38:29;;;;;;;5.23;4.73;;;20.00;47.60;;;;;;5047051;28;20531;-68
2020/12/07 08:41:10;;;;;;;5.23;4.73;;;20.00;47.60;;;;;;5041253;28;20547;-69
2020/12/07 08:43:37;;;;;;;8.07;5.13;;;20.00;47.50;;;;;;5047531;28;20497;-69
2020/12/07 08:46:03;;;;;;;6.77;5.90;;;20.00;47.50;;;;;;5040780;28;20483;-69
2020/12/07 08:48:29;;;;;;;6.10;4.93;;;20.00;47.60;;;;;;5042552;28;21158;-69
2020/12/07 08:50:56;;;;;;;5.60;5.10;;;19.90;47.70;;;;;;5044755;28;20486;-68
2020/12/07 08:53:22;;;;;;;5.33;4.40;;;19.90;47.80;;;;;;5047393;28;20551;-67
2020/12/07 08:55:48;;;;;;;7.73;4.87;;;19.90;47.90;;;;;;5046559;28;20529;-69
2020/12/07 08:58:14;;;;;;;5.93;4.60;;;19.90;48.00;;;;;;5033088;28;20884;-70
2020/12/07 09:00:40;;;;;;;4.33;3.97;;;19.80;48.10;;;;;;5045743;28;20544;-68
2020/12/07 09:03:06;;;;;;;4.50;4.20;;;19.80;48.10;;;;;;5041270;28;20941;-70
2020/12/07 09:05:32;;;;;;;6.30;5.47;;;19.80;48.30;;;;;;5042846;28;20497;-68
2020/12/07 09:07:59;;;;;;;5.77;4.57;;;19.80;48.30;;;;;;5042717;28;20493;-69
2020/12/07 09:10:25;;;;;;;6.50;4.50;;;19.70;48.30;;;;;;5050811;28;22020;-71
2020/12/07 09:12:51;;;;;;;4.17;3.80;;;19.70;48.40;;;;;;5050748;28;20489;-68
2020/12/07 09:15:18;;;;;;;7.20;5.50;;;19.70;48.50;;;;;;5038382;28;20559;-69
2020/12/07 09:17:44;;;;;;;4.97;4.50;;;19.80;48.40;;;;;;5042641;28;20514;-70
2020/12/07 09:20:10;;;;;;;8.13;5.10;;;19.80;48.30;;;;;;5050289;28;20493;-69
2020/12/07 09:22:36;;;;;;;8.10;5.37;;;19.90;48.20;;;;;;5051350;28;21115;-67
2020/12/07 09:25:03;;;;;;;6.07;4.50;;;19.90;48.00;;;;;;5053123;28;20588;-70
2020/12/07 09:27:29;;;;;;;4.53;4.13;;;19.90;47.90;;;;;;5047383;28;20550;-69
2020/12/07 09:29:55;;;;;;;5.97;5.43;;;20.00;47.80;;;;;;5052017;28;21065;-71
2020/12/07 09:32:21;;;;;;;5.27;4.80;;;20.00;47.70;;;;;;5043101;28;20501;-69
2020/12/07 09:34:47;;;;;;;5.83;4.77;;;20.10;47.80;;;;;;5050032;28;20538;-69
2020/12/07 09:37:13;;;;;;;5.53;4.90;;;20.10;47.70;;;;;;5044490;28;20482;-69
2020/12/07 09:39:39;;;;;;;5.13;4.53;;;20.10;47.70;;;;;;5049101;28;21053;-70
2020/12/07 09:42:06;;;;;;;7.10;4.97;;;20.10;47.70;;;;;;5048643;28;20554;-69
2020/12/07 09:44:32;;;;;;;5.63;5.10;;;20.10;47.70;;;;;;5051754;28;20524;-70
2020/12/07 09:46:58;;;;;;;7.00;4.97;;;20.10;47.80;;;;;;5047342;28;20506;-70
2020/12/07 09:49:24;;;;;;;4.50;4.20;;;20.10;47.80;;;;;;5052681;28;20547;-69
2020/12/07 09:51:50;;;;;;;5.30;4.80;;;20.10;47.90;;;;;;5054833;28;20478;-70
2020/12/07 09:54:17;;;;;;;4.73;4.30;;;20.10;47.90;;;;;;5068942;28;20526;-68
2020/12/07 09:56:43;;;;;;;5.37;4.93;;;20.10;47.90;;;;;;5067914;28;20530;-70
2020/12/07 09:59:09;;;;;;;4.60;4.00;;;20.10;47.90;;;;;;5074262;28;20488;-68
2020/12/07 10:01:35;;;;;;;6.43;4.83;;;20.10;47.80;;;;;;5070657;28;20481;-68
2020/12/07 10:04:02;;;;;;;7.57;5.40;;;20.10;47.80;;;;;;5072002;28;20538;-68
2020/12/07 10:06:29;;;;;;;6.20;5.60;;;20.10;47.80;;;;;;5069816;28;20483;-71
2020/12/07 10:08:55;;;;;;;6.57;5.00;;;20.10;47.80;;;;;;5077666;27;20535;-68
2020/12/07 10:11:21;;;;;;;5.23;4.73;;;20.10;47.80;;;;;;5071048;28;21020;-69
2020/12/07 10:13:47;;;;;;;4.43;4.13;;;20.10;47.70;;;;;;5041701;28;20559;-69
2020/12/07 10:16:14;;;;;;;6.43;5.30;;;20.10;47.90;;;;;;5037820;28;20537;-69
2020/12/07 10:18:40;;;;;;;6.00;4.87;;;20.10;47.80;;;;;;5031305;28;20474;-69
2020/12/07 10:21:06;;;;;;;6.13;5.53;;;20.10;47.70;;;;;;5046080;28;20489;-69
2020/12/07 10:23:32;;;;;;;5.97;4.80;;;20.20;47.80;;;;;;5038572;28;20559;-69
2020/12/07 10:25:59;;;;;;;5.53;4.63;;;20.20;47.80;;;;;;5073185;28;20615;-71
2020/12/07 10:28:25;;;;;;;5.53;5.03;;;20.20;47.70;;;;;;5073794;28;20488;-70
2020/12/07 10:30:51;;;;;;;4.27;3.83;;;20.20;47.70;;;;;;5079009;28;20493;-69
2020/12/07 10:33:18;;;;;;;4.97;4.67;;;20.20;47.60;;;;;;5060643;28;20523;-68
2020/12/07 10:35:44;;;;;;;5.20;4.70;;;20.30;47.60;;;;;;5069480;28;21135;-69
2020/12/07 10:38:10;;;;;;;5.97;4.50;;;20.30;47.60;;;;;;5073453;27;20550;-69
2020/12/07 10:40:36;;;;;;;5.63;4.93;;;20.30;47.70;;;;;;5072705;28;20477;-73
2020/12/07 10:43:02;;;;;;;5.73;5.33;;;20.30;47.60;;;;;;5074793;28;20488;-69
2020/12/07 10:45:28;;;;;;;6.03;5.43;;;20.30;47.60;;;;;;5076115;28;20477;-72
2020/12/07 10:47:54;;;;;;;7.20;5.70;;;20.30;47.70;;;;;;5080284;28;20522;-69
2020/12/07 10:50:21;;;;;;;6.83;5.00;;;20.20;47.50;;;;;;5091923;28;20542;-68
2020/12/07 10:52:47;;;;;;;10.13;6.17;;;20.20;47.60;;;;;;5081409;28;20469;-68
2020/12/07 10:55:13;;;;;;;6.93;5.57;;;20.20;47.70;;;;;;5072314;28;21244;-69
2020/12/07 10:57:39;;;;;;;6.60;5.30;;;20.20;47.60;;;;;;5077241;28;20533;-69
2020/12/07 11:00:05;;;;;;;8.00;6.40;;;20.20;48.40;;;;;;5073722;28;20477;-70
2020/12/07 11:02:31;;;;;;;7.40;5.10;;;20.10;47.80;;;;;;5076283;28;20538;-70
2020/12/07 11:04:57;;;;;;;6.63;5.20;;;20.10;47.80;;;;;;5071397;28;20590;-69
2020/12/07 11:07:26;;;;;;;4.90;4.50;;;20.10;47.90;;;;;;5072475;28;20566;-69
2020/12/07 11:09:52;;;;;;;5.33;4.83;;;20.00;47.90;;;;;;5075673;28;20477;-69
2020/12/07 11:12:20;;;;;;;7.37;6.00;;;20.00;47.90;;;;;;5072126;28;20485;-70
2020/12/07 11:14:47;;;;;;;6.13;5.50;;;20.00;47.90;;;;;;5071637;28;20488;-69
2020/12/07 11:17:13;;;;;;;6.60;5.20;;;20.00;47.90;;;;;;5065301;28;22666;-70
2020/12/07 11:19:42;;;;;;;7.90;5.50;;;20.00;47.90;;;;;;5052215;28;20547;-67
2020/12/07 11:22:08;;;;;;;7.33;5.70;;;20.10;47.80;;;;;;5049920;28;20506;-70
2020/12/07 11:24:35;;;;;;;7.37;5.30;;;20.10;47.80;;;;;;5051568;28;21582;-71
2020/12/07 11:27:01;;;;;;;5.63;5.00;;;20.10;47.70;;;;;;5036091;28;20542;-69
2020/12/07 11:29:27;;;;;;;6.00;5.00;;;20.20;47.80;;;;;;5050382;28;20486;-68
2020/12/07 11:31:53;;;;;;;6.07;5.27;;;20.20;47.70;;;;;;5047808;28;21590;-69
2020/12/07 11:34:20;;;;;;;6.33;5.67;;;20.20;47.70;;;;;;5048634;28;20477;-68
2020/12/07 11:36:46;;;;;;;5.97;5.40;;;20.20;47.50;;;;;;5038409;28;20480;-69
2020/12/07 11:39:25;;;;;;;6.00;5.47;;;20.20;47.60;;;;;;5045568;28;20490;-72
2020/12/07 11:42:01;;;;;;;5.30;4.87;;;20.10;47.50;;;;;;5042148;28;20473;-70
2020/12/07 11:44:27;;;;;;;6.70;5.53;;;20.10;47.60;;;;;;5048954;28;20480;-68
2020/12/07 11:46:56;;;;;;;8.37;5.53;;;20.10;47.60;;;;;;5043924;28;20493;-70
2020/12/07 11:49:22;;;;;;;5.63;5.13;;;20.10;47.70;;;;;;5049054;28;20478;-68
2020/12/07 11:51:48;;;;;;;5.13;4.73;;;20.10;47.70;;;;;;5045506;28;20485;-69
2020/12/07 11:54:14;;;;;;;6.60;5.80;;;20.10;47.90;;;;;;5048750;28;20479;-69
2020/12/07 11:56:40;;;;;;;5.77;4.47;;;20.00;47.80;;;;;;5046435;28;20539;-70
2020/12/07 11:59:07;;;;;;;5.43;5.03;;;20.00;47.80;;;;;;5045709;28;20541;-69
2020/12/07 12:01:33;;;;;;;5.13;4.67;;;20.00;47.70;;;;;;5049310;28;20477;-69
2020/12/07 12:04:00;;;;;;;6.00;5.40;;;20.00;47.80;;;;;;5046254;28;20560;-69
2020/12/07 12:06:27;;;;;;;7.07;5.53;;;20.00;47.80;;;;;;5038521;28;21270;-68
2020/12/07 12:08:53;;;;;;;6.70;5.07;;;20.00;47.80;;;;;;5040892;28;20482;-66
2020/12/07 12:11:19;;;;;;;4.73;4.33;;;20.00;47.80;;;;;;5057302;28;21640;-71
2020/12/07 12:13:46;;;;;;;6.93;4.97;;;20.00;47.80;;;;;;5025748;28;21143;-70
2020/12/07 12:16:13;;;;;;;5.23;4.83;;;20.00;47.90;;;;;;5035629;28;20505;-68
2020/12/07 12:18:39;;;;;;;5.10;4.60;;;20.00;47.90;;;;;;5036294;28;21019;-68
2020/12/07 12:21:05;;;;;;;5.67;4.70;;;20.00;47.90;;;;;;5041055;28;20490;-69
2020/12/07 12:23:31;;;;;;;5.00;4.50;;;20.00;47.90;;;;;;5043741;28;20575;-69
2020/12/07 12:25:57;;;;;;;6.80;4.80;;;20.00;47.90;;;;;;5038999;28;20579;-67
2020/12/07 12:28:23;;;;;;;4.97;4.47;;;20.00;47.90;;;;;;5036595;28;21275;-68
2020/12/07 12:30:50;;;;;;;5.10;4.60;;;20.10;47.90;;;;;;5041925;28;20489;-71
2020/12/07 12:33:18;;;;;;;5.03;4.63;;;20.10;48.50;;;;;;5043330;28;20809;-68
2020/12/07 12:35:44;;;;;;;4.60;4.30;;;20.10;47.60;;;;;;5046575;28;21184;-72
2020/12/07 12:38:10;;;;;;;4.50;4.10;;;20.10;47.60;;;;;;5042731;28;20539;-68
2020/12/07 12:40:36;;;;;;;4.90;4.53;;;20.10;47.60;;;;;;5041065;28;20498;-69
2020/12/07 12:43:02;;;;;;;5.00;4.60;;;20.10;47.60;;;;;;5033445;28;20911;-69
2020/12/07 12:45:28;;;;;;;4.50;4.10;;;20.10;47.70;;;;;;5048590;28;20486;-68
2020/12/07 12:47:54;;;;;;;5.37;4.30;;;20.00;47.70;;;;;;5035740;28;20504;-69
2020/12/07 12:50:21;;;;;;;4.10;3.70;;;20.00;47.80;;;;;;5042319;28;20481;-71
2020/12/07 12:52:47;;;;;;;4.67;4.37;;;20.00;47.80;;;;;;5039631;28;21103;-68
2020/12/07 12:55:13;;;;;;;4.90;4.30;;;20.00;47.90;;;;;;5045896;28;20489;-69
2020/12/07 12:57:39;;;;;;;4.73;4.43;;;20.00;47.90;;;;;;5048202;28;20535;-69
2020/12/07 13:00:06;;;;;;;4.67;4.07;;;20.10;47.90;;;;;;5043171;28;20487;-70
2020/12/07 13:02:32;;;;;;;4.37;4.00;;;20.10;47.80;;;;;;5042690;28;21072;-69
2020/12/07 13:04:58;;;;;;;4.70;4.27;;;20.10;47.70;;;;;;5050800;28;20546;-68